Station: Port Hedland  

  Atmospheric Gas Attenuation - ITU Rec 676-11   ----------------- dB/100km -----------------
Date Time Temp RH % AH g/m3 Dew Point Wind Direction Speed kph Gust kph Barometer mB Rainfall Since 9am 24GHz 47GHz 76GHz 122GHz 134GHz 241GHz
08/05 09:20 25.5 23 5.45 2.9 48 54 1019.4 0 12.5 18.8 24.5 63.5 51.6 175.5
08/05 09:10 25.6 23 5.48 2.9 41 50 1019.4 0 12.6 18.8 24.5 63.7 51.8 176.4
08/05 09:00 24.9 23 5.26 2.4 44 61 1019.6 0 12.1 18.7 24.1 62.4 50.0 170.0
08/05 08:50 24.6 24 5.4 2.7 52 59 1019.3 0 12.4 18.9 24.6 63.8 51.6 175.6
08/05 08:40 24.4 24 5.34 2.5 41 50 1019.2 0 12.3 18.9 24.4 63.4 51.1 173.8
08/05 08:30 24.1 25 5.47 2.9 41 56 1019.5 0 12.6 19.1 24.9 64.8 52.7 179.2
08/05 08:20 23.9 25 5.41 2.7 41 48 1019.4 0 12.5 19.1 24.8 64.4 52.2 177.4
08/05 08:10 23.6 25 5.32 2.4 37 46 1019.4 0 12.3 19.0 24.6 63.9 51.4 174.8
08/05 08:00 22.8 26 5.28 2.3 32 46 1019.5 0 12.2 19.1 24.7 64.2 51.5 175.0
08/05 07:50 22.6 26 5.22 2.1 33 41 1019.3 0 12.1 19.1 24.6 63.8 51.0 173.2
08/05 07:40 21.8 27 5.18 2 30 35 1019.2 0 12.1 19.2 24.7 64.1 51.1 173.4
08/05 07:30 21.5 28 5.28 2.2 24 33 1019.4 0 12.3 19.4 25.1 65.2 52.3 177.7
08/05 07:20 21.6 28 5.31 2.3 28 33 1019.3 0 12.3 19.4 25.2 65.4 52.6 178.6
08/05 07:10 21.6 28 5.31 2.3 22 24 1019.3 0 12.3 19.4 25.2 65.4 52.6 178.6
08/05 07:00 21 28 5.13 1.8 24 33 1019.2 0 12.0 19.3 24.8 64.3 51.1 173.2
08/05 06:50 20.9 28 5.1 1.7 20 24 1018.9 0 11.9 19.3 24.7 64.1 50.8 172.2
08/05 06:40 20.9 28 5.1 1.7 22 30 1018.7 0 11.9 19.3 24.7 64.1 50.8 172.2
08/05 06:30 20.8 28 5.07 1.6 24 32 1018.7 0 11.9 19.2 24.6 63.9 50.5 171.3
08/05 06:20 20.9 28 5.1 1.7 26 28 1018.5 0 11.9 19.3 24.7 64.0 50.8 172.2
08/05 06:10 20.9 28 5.1 1.7 22 28 1018.3 0 11.9 19.2 24.7 64.0 50.8 172.1
08/05 06:00 21 28 5.13 1.8 26 35 1018.2 0 12.0 19.3 24.7 64.2 51.0 173.0
08/05 05:50 21.1 28 5.16 1.9 22 26 1018.2 0 12.0 19.3 24.8 64.4 51.3 173.9
08/05 05:40 21.4 27 5.06 1.6 24 32 1018.2 0 11.8 19.1 24.4 63.3 50.0 169.6
08/05 05:30 21.4 27 5.06 1.7 26 33 1018.2 0 11.8 19.1 24.4 63.3 50.0 169.6
08/05 05:20 21.6 26 4.93 1.3 26 32 1018.1 0 11.6 18.9 23.9 62.0 48.6 164.5
08/05 05:10 21.7 26 4.96 1.4 22 32 1018.1 0 11.6 18.9 24.0 62.2 48.8 165.4
08/05 05:00 21.8 26 4.99 1.5 26 33 1017.8 0 11.7 18.9 24.0 62.4 49.1 166.2
08/05 04:50 22 26 5.05 1.6 26 32 1017.7 0 11.8 18.9 24.2 62.7 49.6 168.0
08/05 04:40 22.1 25 4.88 1.2 28 33 1017.5 0 11.4 18.7 23.6 61.2 47.7 161.6
08/05 04:30 22.4 25 4.96 1.4 28 37 1017.4 0 11.6 18.7 23.8 61.7 48.4 163.9
08/05 04:20 22.5 25 4.99 1.5 28 32 1017.3 0 11.7 18.8 23.8 61.8 48.6 164.8
08/05 04:10 22.5 25 4.99 1.5 26 33 1017.4 0 11.7 18.8 23.8 61.8 48.6 164.8
08/05 04:00 22.4 25 4.96 1.4 22 33 1017.2 0 11.6 18.7 23.8 61.6 48.4 163.8
08/05 03:50 22.5 25 4.99 1.5 22 26 1017.1 0 11.7 18.8 23.8 61.8 48.6 164.7
08/05 03:40 22.7 25 5.05 1.7 24 32 1017 0 11.8 18.8 24.0 62.2 49.1 166.5
08/05 03:30 22.7 25 5.05 1.7 26 33 1017 0 11.8 18.8 24.0 62.2 49.1 166.5
08/05 03:20 22.8 25 5.08 1.8 24 30 1017 0 11.8 18.8 24.0 62.3 49.3 167.4
08/05 03:10 22.8 24 4.88 1.2 22 28 1017 0 11.4 18.6 23.4 60.7 47.3 160.2
08/05 03:00 22.9 25 5.11 1.9 22 35 1016.9 0 11.9 18.8 24.1 62.5 49.6 168.2
08/05 02:50 22.9 25 5.11 1.8 24 28 1017 0 11.9 18.8 24.1 62.5 49.6 168.3
08/05 02:40 23.1 24 4.96 1.4 24 30 1017.1 0 11.6 18.6 23.6 61.1 48.0 162.5
08/05 02:30 23.3 24 5.02 1.6 24 33 1017 0 11.7 18.6 23.7 61.5 48.4 164.2
08/05 02:20 23.3 24 5.02 1.6 24 28 1017 0 11.7 18.6 23.7 61.5 48.4 164.2
08/05 02:10 23.3 24 5.02 1.6 22 26 1017 0 11.7 18.6 23.7 61.5 48.4 164.2
08/05 02:00 23.5 24 5.08 1.8 24 35 1016.9 0 11.8 18.7 23.8 61.8 48.9 166.0
08/05 01:50 23.6 24 5.1 1.9 28 37 1017 0 11.8 18.7 23.9 61.9 49.1 166.5
08/05 01:40 23.7 24 5.13 2 26 33 1016.8 0 11.9 18.7 23.9 62.1 49.3 167.4
08/05 01:30 23.6 24 5.1 1.9 24 32 1016.9 0 11.8 18.7 23.8 61.9 49.1 166.5
08/05 01:20 23.7 24 5.13 2 22 28 1017 0 11.9 18.7 23.9 62.1 49.3 167.4
08/05 01:10 23.8 24 5.16 2 22 28 1016.9 0 12.0 18.7 24.0 62.2 49.6 168.2
08/05 01:00 23.9 24 5.19 2.1 22 30 1017 0 12.0 18.7 24.0 62.4 49.8 169.1
08/05 00:50 24.1 23 5.03 1.7 22 28 1017.1 0 11.7 18.5 23.5 61.0 48.1 163.1
08/05 00:40 24.2 24 5.28 2.4 24 32 1017 0 12.2 18.8 24.2 62.9 50.6 171.8
08/05 00:30 24.1 24 5.25 2.3 22 30 1017 0 12.1 18.8 24.2 62.8 50.3 170.9
08/05 00:20 24.2 24 5.28 2.4 20 24 1017 0 12.2 18.8 24.2 62.9 50.6 171.8
08/05 00:10 24.1 25 5.47 2.9 22 28 1017 0 12.6 19.0 24.9 64.6 52.6 178.8
08/05 00:00 24.3 25 5.53 3 20 30 1017.1 0 12.7 19.1 25.0 64.9 53.0 180.6
07/05 23:50 24.4 25 5.56 3.1 22 26 1017.1 0 12.8 19.1 25.0 65.1 53.3 181.4
07/05 23:40 24.5 25 5.59 3.2 19 24 1017.2 0 12.8 19.1 25.1 65.3 53.5 182.3
07/05 23:30 24.7 25 5.66 3.4 22 32 1017.1 0 13.0 19.2 25.3 65.7 54.1 184.4
07/05 23:20 24.8 25 5.69 3.5 22 28 1017 0 13.0 19.2 25.3 65.9 54.4 185.2
07/05 23:10 24.9 25 5.72 3.5 24 32 1017 0 13.1 19.2 25.4 66.0 54.6 186.1
07/05 23:00 24.9 25 5.72 3.5 22 32 1017.1 0 13.1 19.2 25.4 66.0 54.6 186.1
07/05 22:50 24.9 26 5.95 4.1 22 26 1017.2 0 13.6 19.5 26.1 68.0 57.0 194.5
07/05 22:40 25.2 25 5.82 3.8 24 30 1017.2 0 13.3 19.3 25.6 66.6 55.4 189.1
07/05 22:30 25.1 26 6.02 4.3 20 28 1017.1 0 13.7 19.5 26.3 68.4 57.6 196.5
07/05 22:20 25.1 26 6.02 4.3 22 26 1017.1 0 13.7 19.5 26.3 68.4 57.6 196.5
07/05 22:10 25.2 26 6.05 4.3 22 26 1017 0 13.8 19.6 26.3 68.6 57.8 197.4
07/05 22:00 25.3 26 6.09 4.4 24 32 1017 0 13.8 19.6 26.4 68.8 58.1 198.6
07/05 21:50 25.4 27 6.36 5.1 22 26 1017 0 14.4 19.9 27.2 71.0 60.9 208.2
07/05 21:40 25.3 28 6.55 5.5 19 20 1017 0 14.8 20.2 27.9 72.7 62.9 215.5
07/05 21:30 25.1 29 6.71 5.8 19 24 1016.9 0 15.1 20.4 28.4 74.2 64.8 221.9
07/05 21:20 24.4 31 6.9 6.2 17 20 1016.8 0 15.6 20.8 29.3 76.5 67.4 231.0
07/05 21:10 23.2 34 7.07 6.5 17 19 1016.8 0 16.0 21.3 30.3 79.1 70.2 240.9
07/05 21:00 23 36 7.4 7.1 15 19 1016.7 0 16.6 21.8 31.5 82.3 74.1 254.4
07/05 20:50 22.9 37 7.56 7.4 15 15 1016.7 0 17.0 22.1 32.1 83.9 76.0 261.0
07/05 20:40 22.6 39 7.83 8 11 11 1016.6 0 17.6 22.5 33.1 86.6 79.3 272.7
07/05 20:30 22.8 39 7.92 8.1 11 13 1016.5 0 17.7 22.6 33.3 87.3 80.1 275.6
07/05 20:20 23.3 37 7.74 7.8 11 13 1016.4 0 17.3 22.2 32.5 85.1 77.6 266.8
07/05 20:10 23.5 38 8.04 8.4 15 15 1016.2 0 18.0 22.6 33.5 87.6 80.8 278.0
07/05 20:00 24 37 8.05 8.4 13 17 1016.1 0 18.0 22.5 33.3 87.1 80.4 276.7
07/05 19:50 24.3 37 8.19 8.7 15 15 1016 0 18.2 22.6 33.6 88.1 81.7 281.2
07/05 19:40 24.4 41 9.12 10.3 11 13 1015.8 0 20.2 23.9 36.8 96.6 92.2 318.2
07/05 19:30 24.8 41 9.33 10.7 13 15 1015.7 0 20.6 24.1 37.4 98.1 94.2 325.2
07/05 19:20 25.1 40 9.26 10.6 15 15 1015.6 0 20.4 23.9 37.0 97.1 93.1 321.1
07/05 19:10 25.8 39 9.39 10.8 13 15 1013.1 0 20.7 23.8 37.0 97.3 93.5 323.0
07/05 19:00 26 41 9.98 11.7 15 17 1015.3 0 21.9 24.7 39.1 102.8 100.4 346.8
07/05 18:50 26.2 44 10.83 13 13 15 1015.2 0 23.6 25.9 42.1 110.7 110.2 381.3
07/05 18:40 26.2 48 11.82 14.3 13 13 1015.2 0 25.7 27.3 45.8 120.6 122.3 423.7
07/05 18:30 26.2 52 12.8 15.6 15 19 1015.1 0 27.8 28.9 49.6 130.6 134.7 466.9
07/05 18:20 26.4 52 12.95 15.8 17 17 1015 0 28.1 29.0 50.0 131.8 136.2 472.4
07/05 18:10 26.6 51 12.84 15.9 17 20 1014.9 0 27.8 28.8 49.4 130.4 134.5 466.2
07/05 18:00 26.5 53 13.27 16.4 11 15 1014.8 0 28.7 29.5 51.2 135.0 140.2 486.1
07/05 17:50 26.6 54 13.59 16.5 13 15 1014.6 0 29.4 30.0 52.4 138.2 144.1 499.9
07/05 17:40 26.7 54 13.67 16.6 15 15 1014.4 0 29.6 30.1 52.6 138.8 144.9 502.8
07/05 17:30 26.8 55 14 17 15 20 1014.4 0 30.2 30.6 53.9 142.2 149.1 517.3
07/05 17:20 27.3 54 14.13 17.2 13 15 1014.2 0 30.5 30.6 54.0 142.6 149.8 519.8
07/05 17:10 27.7 52 13.91 17.2 15 15 1014.1 0 30.0 30.1 52.9 139.6 146.2 507.2
07/05 17:00 30.1 33 10.06 12.1 22 32 1014.1 0 21.8 23.7 37.4 98.4 96.2 332.6
07/05 16:50 30.9 22 7 6.7 24 28 1014.1 0 15.5 19.5 27.3 71.4 63.1 216.7

Last Refresh: 08-May-2026 11:04:02

Bureau of Meteorology